sensor_id;sensor_type;location;lat;lon;timestamp;pressure;altitude;pressure_sealevel;temperature;humidity
47366;BME280;33105;47.964;7.982;2022-10-17T00:02:59;97228.41;;;14.71;73.72
47366;BME280;33105;47.964;7.982;2022-10-17T00:06:08;97216.59;;;14.75;73.53
47366;BME280;33105;47.964;7.982;2022-10-17T00:09:18;97224.56;;;14.77;73.73
47366;BME280;33105;47.964;7.982;2022-10-17T00:12:20;97223.75;;;14.46;75.18
47366;BME280;33105;47.964;7.982;2022-10-17T00:15:22;97222.66;;;14.57;74.31
47366;BME280;33105;47.964;7.982;2022-10-17T00:18:32;97219.34;;;14.35;75.29
47366;BME280;33105;47.964;7.982;2022-10-17T00:24:55;97224.28;;;14.38;75.37
47366;BME280;33105;47.964;7.982;2022-10-17T00:27:58;97234.44;;;14.37;73.92
47366;BME280;33105;47.964;7.982;2022-10-17T00:31:05;97230.34;;;14.60;74.51
47366;BME280;33105;47.964;7.982;2022-10-17T00:34:14;97240.25;;;14.46;75.32
47366;BME280;33105;47.964;7.982;2022-10-17T00:37:16;97236.09;;;14.38;74.96
47366;BME280;33105;47.964;7.982;2022-10-17T00:40:17;97242.16;;;14.30;75.57
47366;BME280;33105;47.964;7.982;2022-10-17T00:43:21;97235.00;;;14.24;75.85
47366;BME280;33105;47.964;7.982;2022-10-17T00:46:31;97233.63;;;14.32;75.44
47366;BME280;33105;47.964;7.982;2022-10-17T00:49:53;97229.78;;;14.22;74.07
47366;BME280;33105;47.964;7.982;2022-10-17T00:53:03;97242.41;;;14.39;73.65
47366;BME280;33105;47.964;7.982;2022-10-17T00:56:05;97238.88;;;14.43;73.86
47366;BME280;33105;47.964;7.982;2022-10-17T00:59:08;97242.72;;;14.32;73.43
47366;BME280;33105;47.964;7.982;2022-10-17T01:02:15;97246.84;;;14.60;72.61
47366;BME280;33105;47.964;7.982;2022-10-17T01:05:20;97242.44;;;14.64;73.40
47366;BME280;33105;47.964;7.982;2022-10-17T01:08:27;97239.97;;;14.42;73.07
47366;BME280;33105;47.964;7.982;2022-10-17T01:12:23;97251.19;;;14.36;73.53
47366;BME280;33105;47.964;7.982;2022-10-17T01:18:55;97251.47;;;14.09;74.69
47366;BME280;33105;47.964;7.982;2022-10-17T01:22:03;97258.63;;;14.10;73.97
47366;BME280;33105;47.964;7.982;2022-10-17T01:25:52;97263.31;;;14.40;74.19
47366;BME280;33105;47.964;7.982;2022-10-17T01:33:13;97269.28;;;13.96;74.66
47366;BME280;33105;47.964;7.982;2022-10-17T01:36:37;97261.59;;;13.98;75.37
47366;BME280;33105;47.964;7.982;2022-10-17T01:39:51;97258.84;;;13.93;74.86
47366;BME280;33105;47.964;7.982;2022-10-17T01:42:57;97264.31;;;13.88;75.42
47366;BME280;33105;47.964;7.982;2022-10-17T01:46:50;97256.13;;;14.13;74.69
47366;BME280;33105;47.964;7.982;2022-10-17T01:49:28;97256.13;;;14.13;75.20
47366;BME280;33105;47.964;7.982;2022-10-17T01:52:37;97258.88;;;14.18;75.06
47366;BME280;33105;47.964;7.982;2022-10-17T01:55:43;97252.28;;;13.99;74.88
47366;BME280;33105;47.964;7.982;2022-10-17T01:59:06;97252.31;;;14.09;75.22
47366;BME280;33105;47.964;7.982;2022-10-17T02:02:13;97253.38;;;14.13;74.83
47366;BME280;33105;47.964;7.982;2022-10-17T02:05:20;97247.56;;;13.79;75.50
47366;BME280;33105;47.964;7.982;2022-10-17T02:08:26;97245.69;;;14.05;75.22
47366;BME280;33105;47.964;7.982;2022-10-17T02:11:28;97238.25;;;14.01;75.23
47366;BME280;33105;47.964;7.982;2022-10-17T02:21:23;97244.88;;;14.05;74.64
47366;BME280;33105;47.964;7.982;2022-10-17T02:24:48;97238.50;;;13.94;74.95
47366;BME280;33105;47.964;7.982;2022-10-17T02:31:25;97243.47;;;13.92;74.70
47366;BME280;33105;47.964;7.982;2022-10-17T02:34:46;97230.56;;;14.13;74.65
47366;BME280;33105;47.964;7.982;2022-10-17T02:37:50;97239.09;;;14.16;74.20
47366;BME280;33105;47.964;7.982;2022-10-17T02:40:55;97232.50;;;14.17;74.57
47366;BME280;33105;47.964;7.982;2022-10-17T02:44:01;97238.53;;;14.14;74.82
47366;BME280;33105;47.964;7.982;2022-10-17T02:47:30;97229.75;;;14.02;74.47
47366;BME280;33105;47.964;7.982;2022-10-17T02:50:56;97225.38;;;14.21;73.23
47366;BME280;33105;47.964;7.982;2022-10-17T02:57:33;97221.50;;;14.12;74.53
47366;BME280;33105;47.964;7.982;2022-10-17T03:00:38;97225.38;;;14.16;74.77
47366;BME280;33105;47.964;7.982;2022-10-17T03:03:52;97230.84;;;13.96;75.90
47366;BME280;33105;47.964;7.982;2022-10-17T03:07:04;97236.00;;;13.72;75.47
47366;BME280;33105;47.964;7.982;2022-10-17T03:10:06;97234.63;;;13.70;76.94
47366;BME280;33105;47.964;7.982;2022-10-17T03:13:07;97239.63;;;13.93;76.34
47366;BME280;33105;47.964;7.982;2022-10-17T03:16:13;97233.00;;;13.79;75.36
47366;BME280;33105;47.964;7.982;2022-10-17T03:19:15;97249.50;;;13.84;74.79
47366;BME280;33105;47.964;7.982;2022-10-17T03:22:19;97247.88;;;13.98;75.64
47366;BME280;33105;47.964;7.982;2022-10-17T03:25:21;97251.03;;;13.54;76.25
47366;BME280;33105;47.964;7.982;2022-10-17T03:28:23;97248.41;;;13.85;75.86
47366;BME280;33105;47.964;7.982;2022-10-17T03:31:29;97249.50;;;13.84;75.39
47366;BME280;33105;47.964;7.982;2022-10-17T03:34:31;97257.44;;;13.75;75.76
47366;BME280;33105;47.964;7.982;2022-10-17T03:37:32;97248.94;;;13.87;75.60
47366;BME280;33105;47.964;7.982;2022-10-17T03:40:34;97257.19;;;13.82;76.19
47366;BME280;33105;47.964;7.982;2022-10-17T03:43:36;97260.69;;;13.67;76.12
47366;BME280;33105;47.964;7.982;2022-10-17T03:46:41;97263.22;;;13.84;75.61
47366;BME280;33105;47.964;7.982;2022-10-17T03:49:43;97259.88;;;13.72;75.22
47366;BME280;33105;47.964;7.982;2022-10-17T03:52:46;97264.56;;;13.71;75.68
47366;BME280;33105;47.964;7.982;2022-10-17T03:55:48;97274.13;;;13.58;75.47
47366;BME280;33105;47.964;7.982;2022-10-17T03:58:50;97272.50;;;13.68;75.93
47366;BME280;33105;47.964;7.982;2022-10-17T04:01:51;97270.88;;;13.77;76.18
47366;BME280;33105;47.964;7.982;2022-10-17T04:04:53;97266.78;;;13.79;75.38
47366;BME280;33105;47.964;7.982;2022-10-17T04:07:56;97264.81;;;13.70;76.80
47366;BME280;33105;47.964;7.982;2022-10-17T04:11:10;97272.00;;;13.86;75.89
47366;BME280;33105;47.964;7.982;2022-10-17T04:14:17;97268.69;;;13.74;76.74
47366;BME280;33105;47.964;7.982;2022-10-17T04:17:18;97279.69;;;13.89;75.28
47366;BME280;33105;47.964;7.982;2022-10-17T04:20:20;97275.81;;;13.70;76.30
47366;BME280;33105;47.964;7.982;2022-10-17T04:23:23;97274.19;;;13.79;75.68
47366;BME280;33105;47.964;7.982;2022-10-17T04:26:33;97269.53;;;13.89;75.70
47366;BME280;33105;47.964;7.982;2022-10-17T04:29:35;97285.72;;;13.86;74.94
47366;BME280;33105;47.964;7.982;2022-10-17T04:32:45;97282.91;;;13.66;76.11
47366;BME280;33105;47.964;7.982;2022-10-17T04:35:59;97281.88;;;13.77;75.86
47366;BME280;33105;47.964;7.982;2022-10-17T04:39:01;97285.94;;;13.59;76.35
47366;BME280;33105;47.964;7.982;2022-10-17T04:42:05;97279.56;;;13.48;76.46
47366;BME280;33105;47.964;7.982;2022-10-17T04:45:10;97285.34;;;13.52;76.39
47366;BME280;33105;47.964;7.982;2022-10-17T04:48:12;97285.38;;;13.62;77.09
47366;BME280;33105;47.964;7.982;2022-10-17T04:51:17;97283.22;;;13.74;76.33
47366;BME280;33105;47.964;7.982;2022-10-17T04:55:06;97288.44;;;13.71;76.12
47366;BME280;33105;47.964;7.982;2022-10-17T04:58:08;97277.41;;;13.55;76.39
47366;BME280;33105;47.964;7.982;2022-10-17T05:01:12;97287.22;;;13.46;77.67
47366;BME280;33105;47.964;7.982;2022-10-17T05:04:15;97292.50;;;13.53;76.00
47366;BME280;33105;47.964;7.982;2022-10-17T05:07:26;97294.44;;;13.57;77.05
47366;BME280;33105;47.964;7.982;2022-10-17T05:10:40;97294.25;;;13.22;77.06
47366;BME280;33105;47.964;7.982;2022-10-17T05:13:42;97297.34;;;13.41;77.12
47366;BME280;33105;47.964;7.982;2022-10-17T05:16:47;97303.09;;;13.34;76.76
47366;BME280;33105;47.964;7.982;2022-10-17T05:19:59;97312.50;;;13.48;77.28
47366;BME280;33105;47.964;7.982;2022-10-17T05:23:00;97319.91;;;13.48;77.07
47366;BME280;33105;47.964;7.982;2022-10-17T05:26:07;97316.28;;;13.37;77.21
47366;BME280;33105;47.964;7.982;2022-10-17T05:29:08;97315.81;;;13.50;77.23
47366;BME280;33105;47.964;7.982;2022-10-17T05:32:15;97316.84;;;13.39;77.10
47366;BME280;33105;47.964;7.982;2022-10-17T05:35:17;97320.22;;;13.51;76.51
47366;BME280;33105;47.964;7.982;2022-10-17T05:38:35;97306.94;;;13.38;77.14
47366;BME280;33105;47.964;7.982;2022-10-17T05:41:40;97314.69;;;13.46;76.91
47366;BME280;33105;47.964;7.982;2022-10-17T05:44:42;97316.38;;;13.52;75.44
47366;BME280;33105;47.964;7.982;2022-10-17T05:47:43;97312.78;;;13.52;76.41
47366;BME280;33105;47.964;7.982;2022-10-17T05:50:45;97321.88;;;13.62;75.97
47366;BME280;33105;47.964;7.982;2022-10-17T05:53:50;97327.31;;;13.47;75.73
47366;BME280;33105;47.964;7.982;2022-10-17T05:56:57;97333.94;;;13.51;76.51
47366;BME280;33105;47.964;7.982;2022-10-17T06:00:04;97346.91;;;13.66;75.75
47366;BME280;33105;47.964;7.982;2022-10-17T06:03:32;97344.53;;;13.85;74.96
47366;BME280;33105;47.964;7.982;2022-10-17T06:06:39;97345.16;;;13.50;75.00
47366;BME280;33105;47.964;7.982;2022-10-17T06:09:41;97345.31;;;13.75;75.46
47366;BME280;33105;47.964;7.982;2022-10-17T06:12:43;97348.25;;;13.63;75.91
47366;BME280;33105;47.964;7.982;2022-10-17T06:15:45;97344.69;;;13.58;76.50
47366;BME280;33105;47.964;7.982;2022-10-17T06:18:47;97358.72;;;13.72;74.98
47366;BME280;33105;47.964;7.982;2022-10-17T06:21:48;97356.19;;;13.55;75.62
47366;BME280;33105;47.964;7.982;2022-10-17T06:24:55;97364.75;;;13.69;76.02
47366;BME280;33105;47.964;7.982;2022-10-17T06:28:08;97369.66;;;13.56;75.58
47366;BME280;33105;47.964;7.982;2022-10-17T06:31:14;97376.91;;;13.78;76.06
47366;BME280;33105;47.964;7.982;2022-10-17T06:34:16;97376.38;;;13.81;76.30
47366;BME280;33105;47.964;7.982;2022-10-17T06:37:18;97378.31;;;13.85;74.34
47366;BME280;33105;47.964;7.982;2022-10-17T06:40:24;97380.75;;;13.82;75.74
47366;BME280;33105;47.964;7.982;2022-10-17T06:43:26;97383.25;;;13.88;76.25
47366;BME280;33105;47.964;7.982;2022-10-17T06:46:40;97391.56;;;14.04;73.59
47366;BME280;33105;47.964;7.982;2022-10-17T06:49:43;97401.38;;;13.89;75.48
47366;BME280;33105;47.964;7.982;2022-10-17T06:53:07;97401.63;;;13.78;76.04
47366;BME280;33105;47.964;7.982;2022-10-17T06:56:38;97396.59;;;14.27;71.71
47366;BME280;33105;47.964;7.982;2022-10-17T07:00:04;97393.41;;;14.60;73.32
47366;BME280;33105;47.964;7.982;2022-10-17T07:03:14;97396.16;;;14.50;73.38
47366;BME280;33105;47.964;7.982;2022-10-17T07:06:16;97401.38;;;14.52;72.19
47366;BME280;33105;47.964;7.982;2022-10-17T07:09:18;97406.34;;;14.55;71.15
47366;BME280;33105;47.964;7.982;2022-10-17T07:12:25;97412.34;;;14.47;71.28
47366;BME280;33105;47.964;7.982;2022-10-17T07:15:27;97411.81;;;14.60;71.89
47366;BME280;33105;47.964;7.982;2022-10-17T07:18:28;97409.97;;;14.81;73.43
47366;BME280;33105;47.964;7.982;2022-10-17T07:21:32;97415.19;;;14.77;71.39
47366;BME280;33105;47.964;7.982;2022-10-17T07:24:34;97418.22;;;15.11;70.81
47366;BME280;33105;47.964;7.982;2022-10-17T07:27:59;97413.56;;;15.07;70.45
47366;BME280;33105;47.964;7.982;2022-10-17T07:31:10;97415.47;;;15.06;72.34
47366;BME280;33105;47.964;7.982;2022-10-17T07:34:12;97409.69;;;15.23;70.92
47366;BME280;33105;47.964;7.982;2022-10-17T07:37:13;97425.66;;;15.06;70.04
47366;BME280;33105;47.964;7.982;2022-10-17T07:40:23;97420.41;;;15.40;69.70
47366;BME280;33105;47.964;7.982;2022-10-17T07:43:27;97424.81;;;15.51;71.33
47366;BME280;33105;47.964;7.982;2022-10-17T07:46:29;97427.03;;;15.54;69.14
47366;BME280;33105;47.964;7.982;2022-10-17T07:49:30;97425.09;;;15.64;69.07
47366;BME280;33105;47.964;7.982;2022-10-17T07:52:31;97425.59;;;15.87;71.17
47366;BME280;33105;47.964;7.982;2022-10-17T07:55:33;97419.78;;;16.04;70.26
47366;BME280;33105;47.964;7.982;2022-10-17T07:58:35;97423.38;;;16.04;70.50
47366;BME280;33105;47.964;7.982;2022-10-17T08:01:37;97433.00;;;16.07;71.61
47366;BME280;33105;47.964;7.982;2022-10-17T08:04:38;97432.13;;;16.21;71.19
47366;BME280;33105;47.964;7.982;2022-10-17T08:07:40;97430.44;;;16.25;70.55
47366;BME280;33105;47.964;7.982;2022-10-17T08:10:41;97439.72;;;16.50;69.89
47366;BME280;33105;47.964;7.982;2022-10-17T08:13:43;97441.84;;;16.63;69.71
47366;BME280;33105;47.964;7.982;2022-10-17T08:16:44;97436.69;;;16.46;70.62
47366;BME280;33105;47.964;7.982;2022-10-17T08:19:45;97443.25;;;16.65;69.09
47366;BME280;33105;47.964;7.982;2022-10-17T08:22:55;97451.94;;;16.88;67.19
47366;BME280;33105;47.964;7.982;2022-10-17T08:26:01;97440.59;;;16.94;69.70
47366;BME280;33105;47.964;7.982;2022-10-17T08:29:02;97454.16;;;16.86;70.74
47366;BME280;33105;47.964;7.982;2022-10-17T08:32:05;97448.59;;;16.96;70.54
47366;BME280;33105;47.964;7.982;2022-10-17T08:35:06;97441.16;;;16.91;70.53
47366;BME280;33105;47.964;7.982;2022-10-17T08:38:08;97444.47;;;16.93;71.06
47366;BME280;33105;47.964;7.982;2022-10-17T08:41:19;97453.41;;;17.14;69.97
47366;BME280;33105;47.964;7.982;2022-10-17T08:48:04;97458.56;;;17.31;70.17
47366;BME280;33105;47.964;7.982;2022-10-17T08:51:22;97460.94;;;17.43;71.42
47366;BME280;33105;47.964;7.982;2022-10-17T08:54:39;97453.75;;;17.42;69.75
47366;BME280;33105;47.964;7.982;2022-10-17T08:57:42;97456.34;;;17.62;71.49
47366;BME280;33105;47.964;7.982;2022-10-17T09:01:07;97456.25;;;17.77;71.49
47366;BME280;33105;47.964;7.982;2022-10-17T09:07:51;97447.63;;;18.08;71.36
47366;BME280;33105;47.964;7.982;2022-10-17T09:14:49;97453.03;;;18.18;69.67
47366;BME280;33105;47.964;7.982;2022-10-17T09:17:51;97452.03;;;18.32;71.89
47366;BME280;33105;47.964;7.982;2022-10-17T09:21:00;97442.91;;;18.32;69.38
47366;BME280;33105;47.964;7.982;2022-10-17T09:24:05;97449.56;;;18.55;69.10
47366;BME280;33105;47.964;7.982;2022-10-17T09:30:49;97449.97;;;18.43;69.70
47366;BME280;33105;47.964;7.982;2022-10-17T09:33:54;97462.78;;;18.58;69.92
47366;BME280;33105;47.964;7.982;2022-10-17T09:36:57;97458.22;;;18.48;69.39
47366;BME280;33105;47.964;7.982;2022-10-17T09:39:59;97459.75;;;18.59;71.72
47366;BME280;33105;47.964;7.982;2022-10-17T09:43:04;97472.94;;;18.67;70.92
47366;BME280;33105;47.964;7.982;2022-10-17T09:46:31;97470.06;;;18.54;72.03
47366;BME280;33105;47.964;7.982;2022-10-17T09:49:46;97479.78;;;18.75;72.32
47366;BME280;33105;47.964;7.982;2022-10-17T09:52:47;97473.19;;;19.09;71.42
47366;BME280;33105;47.964;7.982;2022-10-17T09:55:54;97481.97;;;19.16;70.83
47366;BME280;33105;47.964;7.982;2022-10-17T09:58:57;97482.03;;;19.11;71.05
47366;BME280;33105;47.964;7.982;2022-10-17T10:02:16;97486.78;;;19.29;71.82
47366;BME280;33105;47.964;7.982;2022-10-17T10:05:19;97484.81;;;19.48;65.01
47366;BME280;33105;47.964;7.982;2022-10-17T10:08:22;97491.00;;;19.59;67.30
47366;BME280;33105;47.964;7.982;2022-10-17T10:11:49;97483.88;;;19.72;67.87
47366;BME280;33105;47.964;7.982;2022-10-17T10:14:51;97487.19;;;19.74;67.98
47366;BME280;33105;47.964;7.982;2022-10-17T10:17:52;97483.66;;;20.00;65.83
47366;BME280;33105;47.964;7.982;2022-10-17T10:21:24;97480.69;;;20.11;67.78
47366;BME280;33105;47.964;7.982;2022-10-17T10:24:25;97489.75;;;20.16;64.22
47366;BME280;33105;47.964;7.982;2022-10-17T10:27:28;97494.38;;;20.34;64.44
47366;BME280;33105;47.964;7.982;2022-10-17T10:30:29;97495.00;;;20.31;65.61
47366;BME280;33105;47.964;7.982;2022-10-17T10:33:33;97488.84;;;20.34;63.62
47366;BME280;33105;47.964;7.982;2022-10-17T10:36:54;97500.25;;;20.33;61.80
47366;BME280;33105;47.964;7.982;2022-10-17T10:39:58;97491.44;;;20.58;60.52
47366;BME280;33105;47.964;7.982;2022-10-17T10:43:01;97511.50;;;20.69;61.00
47366;BME280;33105;47.964;7.982;2022-10-17T10:46:25;97510.88;;;20.58;58.27
47366;BME280;33105;47.964;7.982;2022-10-17T10:49:31;97506.97;;;20.87;60.19
47366;BME280;33105;47.964;7.982;2022-10-17T10:52:44;97508.38;;;21.12;56.94
47366;BME280;33105;47.964;7.982;2022-10-17T10:56:03;97512.50;;;21.00;58.60
47366;BME280;33105;47.964;7.982;2022-10-17T10:59:20;97520.13;;;20.81;57.22
47366;BME280;33105;47.964;7.982;2022-10-17T11:02:45;97524.25;;;20.97;57.56
47366;BME280;33105;47.964;7.982;2022-10-17T11:05:54;97522.59;;;20.96;58.92
47366;BME280;33105;47.964;7.982;2022-10-17T11:09:25;97523.84;;;20.90;56.86
47366;BME280;33105;47.964;7.982;2022-10-17T11:12:59;97529.59;;;20.94;55.97
47366;BME280;33105;47.964;7.982;2022-10-17T11:19:47;97527.41;;;21.18;58.16
47366;BME280;33105;47.964;7.982;2022-10-17T11:22:55;97535.25;;;21.02;56.47
47366;BME280;33105;47.964;7.982;2022-10-17T11:26:12;97540.06;;;21.11;58.50
47366;BME280;33105;47.964;7.982;2022-10-17T11:29:16;97533.25;;;21.17;55.78
47366;BME280;33105;47.964;7.982;2022-10-17T11:32:28;97541.28;;;21.32;55.11
47366;BME280;33105;47.964;7.982;2022-10-17T11:35:35;97544.47;;;21.12;55.28
47366;BME280;33105;47.964;7.982;2022-10-17T11:38:54;97545.19;;;21.03;55.42
47366;BME280;33105;47.964;7.982;2022-10-17T11:42:09;97545.31;;;21.12;56.10
47366;BME280;33105;47.964;7.982;2022-10-17T11:45:15;97550.06;;;21.25;54.99
47366;BME280;33105;47.964;7.982;2022-10-17T11:48:22;97556.72;;;21.38;54.46
47366;BME280;33105;47.964;7.982;2022-10-17T11:51:25;97546.84;;;21.32;54.95
47366;BME280;33105;47.964;7.982;2022-10-17T11:54:38;97548.50;;;21.33;54.18
47366;BME280;33105;47.964;7.982;2022-10-17T11:57:53;97547.66;;;21.19;54.64
47366;BME280;33105;47.964;7.982;2022-10-17T12:07:52;97549.91;;;21.44;54.61
47366;BME280;33105;47.964;7.982;2022-10-17T12:13:59;97539.00;;;21.48;53.79
47366;BME280;33105;47.964;7.982;2022-10-17T12:17:02;97541.59;;;21.66;53.85
47366;BME280;33105;47.964;7.982;2022-10-17T12:23:29;97540.06;;;21.60;51.04
47366;BME280;33105;47.964;7.982;2022-10-17T12:26:30;97540.84;;;21.52;49.65
47366;BME280;33105;47.964;7.982;2022-10-17T12:29:38;97542.97;;;21.55;48.39
47366;BME280;33105;47.964;7.982;2022-10-17T12:32:59;97539.50;;;21.50;52.55
47366;BME280;33105;47.964;7.982;2022-10-17T12:42:30;97534.47;;;21.52;52.69
47366;BME280;33105;47.964;7.982;2022-10-17T12:48:59;97526.34;;;21.78;47.30
47366;BME280;33105;47.964;7.982;2022-10-17T12:55:18;97522.78;;;21.86;49.29
47366;BME280;33105;47.964;7.982;2022-10-17T12:58:24;97528.13;;;21.82;47.69
47366;BME280;33105;47.964;7.982;2022-10-17T13:01:31;97523.88;;;21.76;45.02
47366;BME280;33105;47.964;7.982;2022-10-17T13:04:35;97529.78;;;21.61;46.90
47366;BME280;33105;47.964;7.982;2022-10-17T13:07:40;97539.72;;;21.76;49.66
47366;BME280;33105;47.964;7.982;2022-10-17T13:10:44;97529.34;;;21.90;47.12
47366;BME280;33105;47.964;7.982;2022-10-17T13:13:49;97530.41;;;21.80;46.87
47366;BME280;33105;47.964;7.982;2022-10-17T13:17:05;97525.56;;;21.86;48.95
47366;BME280;33105;47.964;7.982;2022-10-17T13:20:18;97518.81;;;22.00;47.80
47366;BME280;33105;47.964;7.982;2022-10-17T13:23:24;97521.69;;;21.95;45.36
47366;BME280;33105;47.964;7.982;2022-10-17T13:26:27;97517.22;;;21.86;49.30
47366;BME280;33105;47.964;7.982;2022-10-17T13:29:29;97515.75;;;21.88;51.31
47366;BME280;33105;47.964;7.982;2022-10-17T13:32:37;97514.81;;;21.93;48.73
47366;BME280;33105;47.964;7.982;2022-10-17T13:35:39;97510.28;;;21.75;46.35
47366;BME280;33105;47.964;7.982;2022-10-17T13:38:41;97519.22;;;21.94;47.11
47366;BME280;33105;47.964;7.982;2022-10-17T13:41:42;97517.28;;;21.72;47.68
47366;BME280;33105;47.964;7.982;2022-10-17T13:44:44;97513.66;;;21.94;46.99
47366;BME280;33105;47.964;7.982;2022-10-17T13:47:46;97509.94;;;21.98;46.02
47366;BME280;33105;47.964;7.982;2022-10-17T13:50:50;97512.47;;;21.86;48.87
47366;BME280;33105;47.964;7.982;2022-10-17T13:53:52;97514.19;;;22.18;46.94
47366;BME280;33105;47.964;7.982;2022-10-17T13:56:58;97508.09;;;21.94;46.48
47366;BME280;33105;47.964;7.982;2022-10-17T14:00:06;97507.41;;;22.11;51.10
47366;BME280;33105;47.964;7.982;2022-10-17T14:03:13;97513.94;;;22.06;50.04
47366;BME280;33105;47.964;7.982;2022-10-17T14:06:22;97509.34;;;22.01;52.83
47366;BME280;33105;47.964;7.982;2022-10-17T14:09:27;97516.03;;;22.00;50.53
47366;BME280;33105;47.964;7.982;2022-10-17T14:12:29;97516.00;;;21.78;51.55
47366;BME280;33105;47.964;7.982;2022-10-17T14:15:33;97505.22;;;21.77;49.69
47366;BME280;33105;47.964;7.982;2022-10-17T14:18:35;97498.13;;;21.70;51.16
47366;BME280;33105;47.964;7.982;2022-10-17T14:21:37;97508.16;;;21.58;50.53
47366;BME280;33105;47.964;7.982;2022-10-17T14:24:39;97502.66;;;21.44;49.35
47366;BME280;33105;47.964;7.982;2022-10-17T14:28:00;97512.31;;;21.47;47.96
47366;BME280;33105;47.964;7.982;2022-10-17T14:34:32;97515.00;;;21.52;50.43
47366;BME280;33105;47.964;7.982;2022-10-17T14:37:43;97503.44;;;21.22;50.07
47366;BME280;33105;47.964;7.982;2022-10-17T14:40:50;97514.09;;;21.29;50.32
47366;BME280;33105;47.964;7.982;2022-10-17T14:43:53;97517.63;;;21.57;50.67
47366;BME280;33105;47.964;7.982;2022-10-17T14:46:58;97516.94;;;21.51;51.17
47366;BME280;33105;47.964;7.982;2022-10-17T14:50:07;97514.25;;;21.24;50.89
47366;BME280;33105;47.964;7.982;2022-10-17T14:53:20;97506.09;;;21.14;50.40
47366;BME280;33105;47.964;7.982;2022-10-17T14:56:27;97517.22;;;21.14;53.15
47366;BME280;33105;47.964;7.982;2022-10-17T14:59:28;97515.28;;;21.28;51.57
47366;BME280;33105;47.964;7.982;2022-10-17T15:02:29;97517.28;;;21.36;51.52
47366;BME280;33105;47.964;7.982;2022-10-17T15:05:30;97519.66;;;21.43;50.46
47366;BME280;33105;47.964;7.982;2022-10-17T15:08:32;97517.72;;;21.29;51.43
47366;BME280;33105;47.964;7.982;2022-10-17T15:11:33;97522.38;;;21.20;52.32
47366;BME280;33105;47.964;7.982;2022-10-17T15:14:34;97523.22;;;21.21;51.52
47366;BME280;33105;47.964;7.982;2022-10-17T15:17:36;97523.59;;;21.14;50.39
47366;BME280;33105;47.964;7.982;2022-10-17T15:20:37;97516.81;;;21.06;51.96
47366;BME280;33105;47.964;7.982;2022-10-17T15:23:39;97516.53;;;20.94;53.36
47366;BME280;33105;47.964;7.982;2022-10-17T15:26:40;97519.00;;;20.82;54.71
47366;BME280;33105;47.964;7.982;2022-10-17T15:29:41;97514.38;;;20.64;52.35
47366;BME280;33105;47.964;7.982;2022-10-17T15:32:43;97519.50;;;20.57;55.68
47366;BME280;33105;47.964;7.982;2022-10-17T15:35:50;97518.69;;;20.43;57.16
47366;BME280;33105;47.964;7.982;2022-10-17T15:38:55;97528.88;;;20.15;57.42
47366;BME280;33105;47.964;7.982;2022-10-17T15:41:56;97530.69;;;19.92;59.63
47366;BME280;33105;47.964;7.982;2022-10-17T15:44:58;97529.81;;;19.78;59.08
47366;BME280;33105;47.964;7.982;2022-10-17T15:48:04;97529.81;;;19.59;62.06
47366;BME280;33105;47.964;7.982;2022-10-17T15:51:06;97536.13;;;19.27;60.05
47366;BME280;33105;47.964;7.982;2022-10-17T15:54:07;97527.41;;;19.15;61.92
47366;BME280;33105;47.964;7.982;2022-10-17T15:57:18;97533.44;;;18.79;62.46
47366;BME280;33105;47.964;7.982;2022-10-17T16:00:23;97539.13;;;18.64;62.76
47366;BME280;33105;47.964;7.982;2022-10-17T16:03:25;97542.66;;;18.46;62.33
47366;BME280;33105;47.964;7.982;2022-10-17T16:06:28;97545.78;;;18.34;63.66
47366;BME280;33105;47.964;7.982;2022-10-17T16:09:30;97547.19;;;18.31;63.22
47366;BME280;33105;47.964;7.982;2022-10-17T16:12:31;97553.16;;;18.20;64.61
47366;BME280;33105;47.964;7.982;2022-10-17T16:15:41;97550.97;;;17.83;65.15
47366;BME280;33105;47.964;7.982;2022-10-17T16:18:42;97558.41;;;17.87;65.93
47366;BME280;33105;47.964;7.982;2022-10-17T16:21:43;97554.66;;;17.73;66.75
47366;BME280;33105;47.964;7.982;2022-10-17T16:24:45;97568.31;;;17.54;66.62
47366;BME280;33105;47.964;7.982;2022-10-17T16:27:48;97570.53;;;17.52;65.11
47366;BME280;33105;47.964;7.982;2022-10-17T16:30:50;97560.09;;;17.44;64.85
47366;BME280;33105;47.964;7.982;2022-10-17T16:33:56;97573.03;;;17.54;65.77
47366;BME280;33105;47.964;7.982;2022-10-17T16:36:57;97565.22;;;17.17;67.44
47366;BME280;33105;47.964;7.982;2022-10-17T16:39:59;97569.66;;;17.13;66.51
47366;BME280;33105;47.964;7.982;2022-10-17T16:43:00;97561.66;;;17.16;67.43
47366;BME280;33105;47.964;7.982;2022-10-17T16:46:03;97566.00;;;17.27;67.14
47366;BME280;33105;47.964;7.982;2022-10-17T16:49:10;97568.53;;;17.19;67.24
47366;BME280;33105;47.964;7.982;2022-10-17T16:52:12;97569.13;;;17.11;67.78
47366;BME280;33105;47.964;7.982;2022-10-17T16:55:13;97583.66;;;16.72;67.94
47366;BME280;33105;47.964;7.982;2022-10-17T16:58:15;97576.97;;;16.88;68.11
47366;BME280;33105;47.964;7.982;2022-10-17T17:01:24;97578.09;;;16.82;68.00
47366;BME280;33105;47.964;7.982;2022-10-17T17:04:25;97585.63;;;16.51;69.81
47366;BME280;33105;47.964;7.982;2022-10-17T17:07:36;97589.19;;;16.67;68.34
47366;BME280;33105;47.964;7.982;2022-10-17T17:10:58;97594.69;;;16.62;68.68
47366;BME280;33105;47.964;7.982;2022-10-17T17:14:03;97608.50;;;16.72;68.01
47366;BME280;33105;47.964;7.982;2022-10-17T17:17:07;97604.63;;;16.73;68.66
47366;BME280;33105;47.964;7.982;2022-10-17T17:20:09;97616.78;;;16.42;69.22
47366;BME280;33105;47.964;7.982;2022-10-17T17:23:10;97614.53;;;16.59;68.21
47366;BME280;33105;47.964;7.982;2022-10-17T17:26:20;97616.50;;;16.53;68.76
47366;BME280;33105;47.964;7.982;2022-10-17T17:29:23;97617.34;;;16.54;68.19
47366;BME280;33105;47.964;7.982;2022-10-17T17:32:33;97624.56;;;16.24;69.16
47366;BME280;33105;47.964;7.982;2022-10-17T17:35:38;97627.28;;;16.40;68.81
47366;BME280;33105;47.964;7.982;2022-10-17T17:38:40;97632.25;;;16.48;68.32
47366;BME280;33105;47.964;7.982;2022-10-17T17:41:42;97631.41;;;16.42;69.45
47366;BME280;33105;47.964;7.982;2022-10-17T17:44:57;97639.44;;;16.28;70.18